Time;durP1;ratioP1;P1;durP2;ratioP2;P2;SDS_P1;SDS_P2;PMS_P1;PMS_P2;Temp;Humidity;BMP_temperature;BMP_pressure;BME280_temperature;BME280_humidity;BME280_pressure;Samples;Min_cycle;Max_cycle;Signal;HPM_P1;HPM_P2
2024/01/14 00:01:44;;;;;;;45.72;19.13;;;-1.50;86.30;;;;;;5029266;28;20041;-60
2024/01/14 00:04:09;;;;;;;42.92;18.63;;;-1.50;86.40;;;;;;5020370;28;20060;-62
2024/01/14 00:06:35;;;;;;;44.88;18.77;;;-1.50;86.30;;;;;;5026764;28;20095;-61
2024/01/14 00:09:01;;;;;;;44.00;18.30;;;-1.50;86.40;;;;;;5022347;28;20124;-61
2024/01/14 00:11:27;;;;;;;40.08;17.58;;;-1.50;86.50;;;;;;5031224;28;20409;-60
2024/01/14 00:13:52;;;;;;;40.85;18.92;;;-1.50;86.50;;;;;;5024977;28;20095;-61
2024/01/14 00:16:18;;;;;;;45.20;18.08;;;-1.50;86.50;;;;;;5020674;28;20326;-60
2024/01/14 00:18:43;;;;;;;43.30;18.90;;;-1.50;86.50;;;;;;5019865;28;20128;-62
2024/01/14 00:21:09;;;;;;;44.47;19.15;;;-1.50;86.50;;;;;;5022443;28;20029;-62
2024/01/14 00:23:34;;;;;;;43.67;18.83;;;-1.50;86.50;;;;;;5024956;28;20037;-61
2024/01/14 00:26:01;;;;;;;52.83;21.05;;;-1.50;86.50;;;;;;5022971;28;20390;-61
2024/01/14 00:28:27;;;;;;;44.08;19.50;;;-1.50;86.50;;;;;;5019599;28;20041;-61
2024/01/14 00:30:53;;;;;;;43.85;19.42;;;-1.50;86.60;;;;;;5023384;28;20046;-60
2024/01/14 00:33:18;;;;;;;38.35;18.17;;;-1.50;86.50;;;;;;5022521;28;20045;-61
2024/01/14 00:35:44;;;;;;;44.05;17.55;;;-1.50;86.60;;;;;;5021062;28;20077;-60
2024/01/14 00:38:10;;;;;;;40.97;17.42;;;-1.50;86.60;;;;;;5021866;28;20025;-61
2024/01/14 00:40:37;;;;;;;39.47;18.20;;;-1.50;86.60;;;;;;5020126;28;20033;-61
2024/01/14 00:43:03;;;;;;;43.05;18.10;;;-1.50;86.60;;;;;;5022277;28;20034;-60
2024/01/14 00:45:29;;;;;;;40.20;17.73;;;-1.50;86.60;;;;;;5023756;28;20041;-62
2024/01/14 00:47:54;;;;;;;41.83;17.65;;;-1.50;86.60;;;;;;5019355;28;20041;-61
2024/01/14 00:50:21;;;;;;;42.03;17.85;;;-1.50;86.30;;;;;;5023726;28;20038;-60
2024/01/14 00:52:47;;;;;;;44.70;18.95;;;-1.50;86.30;;;;;;5022992;28;20535;-61
2024/01/14 00:55:13;;;;;;;42.53;17.63;;;-1.50;86.30;;;;;;5028368;28;20041;-61
2024/01/14 00:57:38;;;;;;;39.50;17.38;;;-1.50;86.30;;;;;;5024943;28;20029;-60
2024/01/14 01:00:09;;;;;;;39.35;16.80;;;-1.50;86.30;;;;;;5031409;28;20393;-59
2024/01/14 01:02:35;;;;;;;40.85;17.92;;;-1.50;86.40;;;;;;5024867;28;20124;-60
2024/01/14 01:05:00;;;;;;;39.35;17.38;;;-1.50;86.40;;;;;;5027964;28;20159;-61
2024/01/14 01:07:26;;;;;;;43.67;18.20;;;-1.50;86.30;;;;;;5026296;28;20524;-61
2024/01/14 01:09:52;;;;;;;41.80;18.65;;;-1.40;86.30;;;;;;5028844;28;20139;-61
2024/01/14 01:12:17;;;;;;;42.17;18.08;;;-1.50;86.20;;;;;;5030771;28;20042;-62
2024/01/14 01:14:44;;;;;;;42.13;17.77;;;-1.50;86.30;;;;;;5033202;28;20549;-61
2024/01/14 01:17:10;;;;;;;41.42;17.83;;;-1.40;86.30;;;;;;5035662;28;20033;-62
2024/01/14 01:19:35;;;;;;;41.72;18.08;;;-1.50;86.10;;;;;;5029622;28;20036;-62
2024/01/14 01:22:01;;;;;;;38.35;17.67;;;-1.50;86.10;;;;;;5027388;28;20038;-62
2024/01/14 01:24:26;;;;;;;42.67;17.85;;;-1.50;86.20;;;;;;5035687;28;20508;-62
2024/01/14 01:26:52;;;;;;;43.63;18.52;;;-1.40;86.30;;;;;;5031317;28;21674;-62
2024/01/14 01:29:17;;;;;;;39.22;17.85;;;-1.50;86.30;;;;;;5025839;28;20123;-61
2024/01/14 01:31:43;;;;;;;41.33;17.85;;;-1.50;86.30;;;;;;5036107;28;20041;-61
2024/01/14 01:34:09;;;;;;;44.58;18.90;;;-1.40;86.30;;;;;;5030961;28;20030;-60
2024/01/14 01:36:35;;;;;;;41.40;17.85;;;-1.40;86.20;;;;;;5031469;28;20045;-60
2024/01/14 01:39:00;;;;;;;39.60;18.30;;;-1.40;86.20;;;;;;5029131;28;20037;-62
2024/01/14 01:41:26;;;;;;;40.42;17.88;;;-1.40;87.00;;;;;;5030446;28;20034;-60
2024/01/14 01:43:51;;;;;;;40.78;17.45;;;-1.50;86.10;;;;;;5026876;28;20033;-61
2024/01/14 01:46:17;;;;;;;40.65;18.45;;;-1.50;86.10;;;;;;5025896;28;20030;-60
2024/01/14 01:48:42;;;;;;;44.35;18.20;;;-1.40;86.30;;;;;;5029428;28;20067;-61
2024/01/14 01:51:09;;;;;;;39.60;17.35;;;-1.50;86.10;;;;;;5024083;28;20033;-62
2024/01/14 01:53:35;;;;;;;39.55;18.10;;;-1.50;86.10;;;;;;5023596;28;20412;-61
2024/01/14 01:56:01;;;;;;;41.72;17.33;;;-1.50;86.20;;;;;;5023350;28;20125;-60
2024/01/14 01:58:27;;;;;;;38.35;17.23;;;-1.50;86.20;;;;;;5033667;28;20440;-60
2024/01/14 02:00:52;;;;;;;37.35;16.27;;;-1.50;86.10;;;;;;5025969;28;20037;-62
2024/01/14 02:03:20;;;;;;;40.45;17.45;;;-1.50;86.10;;;;;;5029172;28;20037;-61
2024/01/14 02:05:46;;;;;;;35.28;16.38;;;-1.50;86.10;;;;;;5027878;28;20317;-61
2024/01/14 02:08:12;;;;;;;40.38;17.55;;;-1.60;86.00;;;;;;5029679;28;20081;-60
2024/01/14 02:10:38;;;;;;;36.55;16.70;;;-1.60;86.10;;;;;;5035177;28;20072;-61
2024/01/14 02:13:05;;;;;;;38.05;17.73;;;-1.60;86.10;;;;;;5026702;28;20037;-61
2024/01/14 02:15:31;;;;;;;38.80;16.83;;;-1.60;86.10;;;;;;5024132;28;20044;-62
2024/01/14 02:17:57;;;;;;;42.85;18.50;;;-1.70;86.10;;;;;;5029183;28;20392;-60
2024/01/14 02:20:22;;;;;;;35.97;16.92;;;-1.70;86.30;;;;;;5025475;28;20045;-59
2024/01/14 02:22:51;;;;;;;37.28;16.85;;;-1.70;86.30;;;;;;5027682;28;20056;-61
2024/01/14 02:25:16;;;;;;;41.47;18.15;;;-1.80;86.50;;;;;;5030331;28;20068;-61
2024/01/14 02:27:42;;;;;;;37.53;16.85;;;-1.80;86.50;;;;;;5028062;28;20037;-62
2024/01/14 02:30:11;;;;;;;41.53;17.90;;;-1.80;86.70;;;;;;5028992;28;20105;-60
2024/01/14 02:32:38;;;;;;;38.13;17.10;;;-1.80;86.70;;;;;;5023542;28;20038;-59
2024/01/14 02:35:05;;;;;;;35.88;17.08;;;-1.80;86.90;;;;;;5026680;28;20065;-61
2024/01/14 02:37:35;;;;;;;38.15;16.52;;;-1.80;87.00;;;;;;5028231;28;20033;-60
2024/01/14 02:40:01;;;;;;;41.38;17.73;;;-1.80;86.80;;;;;;5026979;28;20041;-60
2024/01/14 02:42:27;;;;;;;42.40;17.77;;;-1.80;87.00;;;;;;5030533;28;20029;-61
2024/01/14 02:44:52;;;;;;;36.97;17.50;;;-1.80;87.00;;;;;;5026506;28;20036;-61
2024/01/14 02:47:18;;;;;;;39.75;17.80;;;-1.80;87.00;;;;;;5025333;28;20113;-62
2024/01/14 02:49:43;;;;;;;40.75;18.02;;;-1.80;87.10;;;;;;5024985;28;20026;-61
2024/01/14 02:52:09;;;;;;;43.15;18.92;;;-1.80;87.20;;;;;;5023142;28;20462;-61
2024/01/14 02:54:35;;;;;;;43.20;19.10;;;-1.80;87.20;;;;;;5030383;28;20057;-62
2024/01/14 02:57:00;;;;;;;37.75;17.30;;;-1.80;87.20;;;;;;5023040;28;20033;-63
2024/01/14 02:59:26;;;;;;;39.25;17.80;;;-1.80;87.30;;;;;;5025883;28;20038;-62
2024/01/14 03:01:51;;;;;;;39.30;17.80;;;-1.70;87.30;;;;;;5025569;28;20065;-61
2024/01/14 03:04:17;;;;;;;40.70;17.60;;;-1.70;87.40;;;;;;5029268;28;20021;-61
2024/01/14 03:06:42;;;;;;;40.85;17.98;;;-1.70;87.30;;;;;;5031280;28;20044;-61
2024/01/14 03:09:09;;;;;;;45.15;18.60;;;-1.70;87.20;;;;;;5028480;28;20102;-61
2024/01/14 03:11:35;;;;;;;39.35;18.48;;;-1.70;87.20;;;;;;5028291;28;20037;-61
2024/01/14 03:14:01;;;;;;;40.80;18.67;;;-1.70;87.10;;;;;;5031986;28;20060;-62
2024/01/14 03:16:27;;;;;;;40.00;18.25;;;-1.60;87.10;;;;;;5019922;28;20065;-60
2024/01/14 03:18:52;;;;;;;43.78;18.67;;;-1.60;87.00;;;;;;5027448;28;20524;-59
2024/01/14 03:21:18;;;;;;;41.80;18.85;;;-1.60;86.90;;;;;;5025189;28;20060;-62
2024/01/14 03:23:44;;;;;;;39.28;17.25;;;-1.70;86.80;;;;;;5024459;28;20033;-60
2024/01/14 03:26:10;;;;;;;42.58;18.50;;;-1.60;86.80;;;;;;5026281;28;20168;-61
2024/01/14 03:28:36;;;;;;;37.22;17.65;;;-1.70;86.80;;;;;;5021674;28;20116;-60
2024/01/14 03:31:02;;;;;;;34.95;16.48;;;-1.70;86.80;;;;;;5024259;28;20053;-61
2024/01/14 03:33:27;;;;;;;37.88;16.98;;;-1.70;86.80;;;;;;5030375;28;20055;-61
2024/01/14 03:35:54;;;;;;;41.95;18.00;;;-1.70;86.60;;;;;;5022215;28;20033;-60
2024/01/14 03:38:19;;;;;;;40.72;18.25;;;-1.70;86.60;;;;;;5027810;28;20097;-61
2024/01/14 03:40:46;;;;;;;41.67;17.75;;;-1.70;86.60;;;;;;5026431;28;20037;-60
2024/01/14 03:43:11;;;;;;;38.92;17.92;;;-1.80;86.60;;;;;;5020546;28;20223;-61
2024/01/14 03:45:37;;;;;;;38.15;17.75;;;-1.80;86.70;;;;;;5026426;28;20091;-59
2024/01/14 03:48:03;;;;;;;40.17;18.30;;;-1.80;86.70;;;;;;5021073;28;20040;-62
2024/01/14 03:50:29;;;;;;;38.40;17.75;;;-1.80;86.80;;;;;;5018872;28;20429;-60
2024/01/14 03:52:54;;;;;;;35.20;17.05;;;-1.80;86.80;;;;;;5029142;28;20059;-57
2024/01/14 03:55:20;;;;;;;36.45;17.25;;;-1.80;86.80;;;;;;5021439;28;20049;-61
2024/01/14 03:57:45;;;;;;;34.92;16.73;;;-1.80;87.60;;;;;;5033060;28;20037;-63
2024/01/14 04:00:12;;;;;;;40.78;17.77;;;-1.80;86.70;;;;;;5022498;28;20046;-61
2024/01/14 04:02:38;;;;;;;40.40;17.90;;;-1.80;86.80;;;;;;5028443;28;20065;-62
2024/01/14 04:05:04;;;;;;;38.60;17.00;;;-1.80;86.80;;;;;;5022375;28;20062;-63
2024/01/14 04:07:30;;;;;;;36.10;17.30;;;-1.80;86.90;;;;;;5024095;28;20047;-61
2024/01/14 04:09:56;;;;;;;37.72;17.65;;;-1.80;86.90;;;;;;5025600;28;20493;-61
2024/01/14 04:12:21;;;;;;;39.47;16.73;;;-1.80;86.80;;;;;;5017933;28;20441;-60
2024/01/14 04:14:47;;;;;;;38.20;17.85;;;-1.80;86.70;;;;;;5032376;28;20444;-62
2024/01/14 04:17:12;;;;;;;41.28;18.17;;;-1.80;86.70;;;;;;5020997;28;20057;-61
2024/01/14 04:19:38;;;;;;;36.35;17.52;;;-1.80;86.70;;;;;;5030858;28;20033;-61
2024/01/14 04:22:04;;;;;;;38.35;18.13;;;-1.80;86.80;;;;;;5023483;28;20099;-58
2024/01/14 04:24:29;;;;;;;39.47;17.23;;;-1.80;86.80;;;;;;5025504;28;20069;-60
2024/01/14 04:26:55;;;;;;;36.20;17.38;;;-1.80;86.80;;;;;;5028155;28;20403;-61
2024/01/14 04:29:20;;;;;;;39.42;18.17;;;-1.80;86.80;;;;;;5022524;28;20030;-60
2024/01/14 04:31:46;;;;;;;39.17;18.83;;;-1.80;86.60;;;;;;5021370;28;20033;-60
2024/01/14 04:34:12;;;;;;;40.20;18.67;;;-1.90;86.50;;;;;;5025106;28;20029;-61
2024/01/14 04:36:37;;;;;;;37.97;17.83;;;-1.90;86.50;;;;;;5027131;28;20103;-62
2024/01/14 04:39:03;;;;;;;39.53;17.45;;;-1.90;86.50;;;;;;5025867;28;20431;-61
2024/01/14 04:41:29;;;;;;;40.20;18.00;;;-1.90;86.60;;;;;;5018330;28;20053;-60
2024/01/14 04:43:54;;;;;;;35.60;16.65;;;-1.90;86.50;;;;;;5034753;28;20063;-62
2024/01/14 04:46:20;;;;;;;42.13;17.55;;;-1.90;86.40;;;;;;5032842;28;20048;-62
2024/01/14 04:48:46;;;;;;;33.22;16.23;;;-1.90;86.30;;;;;;5024584;28;20060;-62
2024/01/14 04:51:12;;;;;;;38.95;17.30;;;-2.00;86.30;;;;;;5026504;28;20075;-62
2024/01/14 04:53:37;;;;;;;35.10;17.05;;;-2.00;86.20;;;;;;5030268;28;20041;-62
2024/01/14 04:56:07;;;;;;;36.35;17.13;;;-2.00;86.10;;;;;;5026062;28;20030;-62
2024/01/14 04:58:33;;;;;;;39.72;18.33;;;-2.00;86.10;;;;;;5032264;28;20124;-61
2024/01/14 05:00:58;;;;;;;39.72;17.90;;;-2.10;86.10;;;;;;5033218;28;20473;-62
2024/01/14 05:03:24;;;;;;;40.20;17.65;;;-2.10;86.20;;;;;;5031718;28;20046;-62
2024/01/14 05:05:49;;;;;;;38.22;18.40;;;-2.10;86.30;;;;;;5027971;28;20501;-61
2024/01/14 05:08:15;;;;;;;37.55;16.98;;;-2.20;86.20;;;;;;5025216;28;20079;-60
2024/01/14 05:10:40;;;;;;;37.00;16.75;;;-2.20;86.10;;;;;;5033924;28;20049;-59
2024/01/14 05:13:06;;;;;;;36.35;16.80;;;-2.20;86.10;;;;;;5028904;28;20489;-60
2024/01/14 05:15:31;;;;;;;38.08;17.55;;;-2.30;86.10;;;;;;5024109;28;20103;-61
2024/01/14 05:17:57;;;;;;;37.63;16.88;;;-2.30;86.10;;;;;;5026933;28;20048;-61
2024/01/14 05:20:23;;;;;;;36.47;17.05;;;-2.40;86.10;;;;;;5021836;28;20084;-62
2024/01/14 05:22:48;;;;;;;39.17;17.52;;;-2.40;86.00;;;;;;5027970;28;20549;-62
2024/01/14 05:25:14;;;;;;;41.58;17.38;;;-2.40;86.00;;;;;;5028527;28;20397;-61
2024/01/14 05:27:39;;;;;;;36.33;17.13;;;-2.30;86.10;;;;;;5020640;28;20033;-62
2024/01/14 05:30:06;;;;;;;38.65;17.42;;;-2.50;86.00;;;;;;5029259;28;20048;-62
2024/01/14 05:32:31;;;;;;;35.95;16.40;;;-2.50;86.00;;;;;;5023036;28;20052;-61
2024/01/14 05:34:57;;;;;;;36.85;16.65;;;-2.50;86.10;;;;;;5026209;28;20084;-61
2024/01/14 05:37:23;;;;;;;40.72;18.35;;;-2.50;86.30;;;;;;5026252;28;20038;-61
2024/01/14 05:39:48;;;;;;;40.60;18.60;;;-2.60;86.30;;;;;;5023350;28;20025;-61
2024/01/14 05:42:14;;;;;;;37.80;17.52;;;-2.60;86.30;;;;;;5024551;28;20111;-60
2024/01/14 05:44:40;;;;;;;41.20;17.00;;;-2.60;86.40;;;;;;5024513;28;20519;-60
2024/01/14 05:47:05;;;;;;;36.20;16.17;;;-2.60;86.50;;;;;;5024593;28;20038;-61
2024/01/14 05:49:31;;;;;;;38.55;17.17;;;-2.60;86.60;;;;;;5026535;28;20396;-60
2024/01/14 05:51:56;;;;;;;36.72;16.38;;;-2.60;86.60;;;;;;5018509;28;20033;-59
2024/01/14 05:54:22;;;;;;;38.42;17.35;;;-2.50;86.70;;;;;;5024667;28;20035;-60
2024/01/14 05:56:48;;;;;;;39.60;18.05;;;-2.50;86.60;;;;;;5022322;28;20030;-62
2024/01/14 05:59:13;;;;;;;41.40;18.02;;;-2.50;86.30;;;;;;5023161;28;20049;-60
2024/01/14 06:01:39;;;;;;;41.42;17.58;;;-2.40;86.00;;;;;;5027996;28;20061;-61
2024/01/14 06:04:05;;;;;;;41.50;17.67;;;-2.40;85.70;;;;;;5020833;28;20033;-58
2024/01/14 06:06:30;;;;;;;44.25;18.23;;;-2.50;85.40;;;;;;5030484;28;20034;-60
2024/01/14 06:08:56;;;;;;;43.25;17.45;;;-2.50;85.40;;;;;;5025175;28;20519;-61
2024/01/14 06:11:22;;;;;;;40.55;17.85;;;-2.50;85.60;;;;;;5023212;28;20033;-58
2024/01/14 06:13:47;;;;;;;39.80;16.80;;;-2.50;85.80;;;;;;5027375;28;20125;-62
2024/01/14 06:16:13;;;;;;;37.05;16.90;;;-2.50;85.90;;;;;;5019611;28;20438;-60
2024/01/14 06:18:41;;;;;;;45.60;18.08;;;-2.50;86.00;;;;;;5027272;28;20044;-59
2024/01/14 06:21:08;;;;;;;44.70;19.48;;;-2.50;85.80;;;;;;5026439;28;20048;-60
2024/01/14 06:23:35;;;;;;;43.47;18.25;;;-2.50;85.70;;;;;;5027028;28;20218;-60
2024/01/14 06:26:00;;;;;;;45.00;18.70;;;-2.50;86.00;;;;;;5025242;28;20116;-59
2024/01/14 06:28:26;;;;;;;46.13;18.73;;;-2.50;86.20;;;;;;5021070;28;20124;-62
2024/01/14 06:30:52;;;;;;;41.45;17.13;;;-2.50;86.50;;;;;;5025733;28;20439;-62
2024/01/14 06:33:18;;;;;;;46.00;18.73;;;-2.40;86.80;;;;;;5024892;28;20400;-60
2024/01/14 06:35:44;;;;;;;47.85;19.38;;;-2.40;87.00;;;;;;5024151;28;20327;-62
2024/01/14 06:38:09;;;;;;;49.20;20.45;;;-2.40;87.00;;;;;;5023939;28;20426;-62
2024/01/14 06:40:35;;;;;;;47.28;19.48;;;-2.30;87.10;;;;;;5021551;28;20052;-62
2024/01/14 06:43:01;;;;;;;54.35;21.60;;;-2.30;87.20;;;;;;5029309;28;20033;-62
2024/01/14 06:45:26;;;;;;;47.40;19.55;;;-2.30;87.20;;;;;;5027031;28;20042;-61
2024/01/14 06:47:52;;;;;;;56.95;21.88;;;-2.30;87.30;;;;;;5022774;28;20056;-61
2024/01/14 06:50:18;;;;;;;68.53;27.80;;;-2.20;87.30;;;;;;5023187;28;20423;-61
2024/01/14 06:52:44;;;;;;;57.17;24.08;;;-2.20;87.40;;;;;;5018579;28;20474;-60
2024/01/14 06:55:14;;;;;;;57.35;23.17;;;-2.20;87.30;;;;;;5023516;28;20513;-61
2024/01/14 06:57:40;;;;;;;50.78;21.15;;;-2.20;87.30;;;;;;5022572;28;20060;-61
2024/01/14 07:00:08;;;;;;;54.13;23.10;;;-2.10;87.30;;;;;;5019586;28;20497;-61
2024/01/14 07:02:34;;;;;;;49.55;20.48;;;-2.00;87.20;;;;;;5026226;28;20034;-58
2024/01/14 07:05:02;;;;;;;48.65;21.25;;;-2.00;87.00;;;;;;5022605;28;20130;-61
2024/01/14 07:07:28;;;;;;;51.72;21.45;;;-2.00;86.80;;;;;;5023024;28;20041;-60
2024/01/14 07:09:54;;;;;;;50.83;19.60;;;-2.00;86.70;;;;;;5024943;28;20030;-57
2024/01/14 07:12:20;;;;;;;48.70;19.92;;;-2.00;86.70;;;;;;5024356;28;20055;-62
2024/01/14 07:14:45;;;;;;;47.40;20.48;;;-1.90;86.60;;;;;;5029477;28;20079;-61
2024/01/14 07:17:11;;;;;;;49.70;20.33;;;-1.90;86.50;;;;;;5022502;28;20049;-60
2024/01/14 07:19:36;;;;;;;51.78;21.23;;;-1.90;86.40;;;;;;5022131;28;20034;-61
2024/01/14 07:22:04;;;;;;;51.90;20.75;;;-1.90;86.30;;;;;;5024044;28;20543;-61
2024/01/14 07:24:30;;;;;;;52.88;21.67;;;-1.80;86.10;;;;;;5024435;28;20038;-60
2024/01/14 07:26:56;;;;;;;46.95;20.67;;;-1.80;86.10;;;;;;5025196;28;20041;-60
2024/01/14 07:29:21;;;;;;;45.88;21.60;;;-1.80;86.00;;;;;;5023861;28;20037;-59
2024/01/14 07:31:47;;;;;;;50.50;21.65;;;-1.80;86.00;;;;;;5021734;28;20473;-61
2024/01/14 07:34:12;;;;;;;47.78;20.52;;;-1.80;86.00;;;;;;5025958;28;20049;-60
2024/01/14 07:36:38;;;;;;;45.28;19.13;;;-1.80;86.00;;;;;;5021607;28;20478;-60
2024/01/14 07:39:04;;;;;;;46.45;19.52;;;-1.70;86.00;;;;;;5020797;28;20060;-60
2024/01/14 07:41:30;;;;;;;49.42;19.92;;;-1.70;85.80;;;;;;5026244;28;20033;-60
2024/01/14 07:43:56;;;;;;;45.72;19.63;;;-1.70;85.70;;;;;;5029275;28;20044;-62
2024/01/14 07:46:21;;;;;;;43.92;19.13;;;-1.70;85.70;;;;;;5025148;28;20029;-62
2024/01/14 07:48:47;;;;;;;45.63;19.60;;;-1.70;85.80;;;;;;5009524;28;20065;-60
2024/01/14 07:51:13;;;;;;;43.83;17.65;;;-1.70;85.80;;;;;;5015094;28;20041;-59
2024/01/14 07:53:38;;;;;;;42.83;17.70;;;-1.70;85.80;;;;;;5020432;28;20041;-58
2024/01/14 07:56:04;;;;;;;41.35;18.02;;;-1.70;85.70;;;;;;5016256;28;20029;-61
2024/01/14 07:58:30;;;;;;;40.22;17.75;;;-1.70;85.80;;;;;;5018665;28;20041;-61
2024/01/14 08:00:55;;;;;;;41.50;17.52;;;-1.70;85.90;;;;;;5013854;28;20037;-61
2024/01/14 08:03:21;;;;;;;39.13;17.58;;;-1.80;85.90;;;;;;5009732;28;20029;-60
2024/01/14 08:05:46;;;;;;;38.50;17.52;;;-1.80;86.00;;;;;;5022633;28;20029;-61
2024/01/14 08:08:12;;;;;;;36.42;16.40;;;-1.80;86.10;;;;;;5021937;28;20155;-60
2024/01/14 08:10:38;;;;;;;44.88;17.80;;;-1.80;87.00;;;;;;5022665;28;20044;-58
2024/01/14 08:13:04;;;;;;;39.97;17.00;;;-1.80;86.30;;;;;;5018016;28;20183;-61
2024/01/14 08:15:30;;;;;;;42.85;18.00;;;-1.80;86.30;;;;;;5023153;28;20549;-61
2024/01/14 08:17:55;;;;;;;40.67;17.52;;;-1.80;86.20;;;;;;5022502;28;20117;-60
2024/01/14 08:20:21;;;;;;;38.97;17.02;;;-1.80;86.40;;;;;;5020493;28;20029;-60
2024/01/14 08:22:47;;;;;;;41.33;17.52;;;-1.80;86.50;;;;;;5018310;28;20041;-59
2024/01/14 08:25:12;;;;;;;39.50;17.63;;;-1.70;87.30;;;;;;5023004;28;20171;-61
2024/01/14 08:27:38;;;;;;;38.70;16.85;;;-1.70;86.50;;;;;;5016472;28;20108;-60
2024/01/14 08:30:07;;;;;;;39.45;17.98;;;-1.70;86.50;;;;;;5018841;28;20033;-58
2024/01/14 08:32:34;;;;;;;40.58;17.60;;;-1.70;86.50;;;;;;5021816;28;20060;-61
2024/01/14 08:34:59;;;;;;;41.53;18.92;;;-1.70;86.40;;;;;;5017086;28;20044;-61
2024/01/14 08:37:30;;;;;;;38.40;17.10;;;-1.60;86.40;;;;;;5018516;28;20034;-61
2024/01/14 08:39:56;;;;;;;37.38;18.13;;;-1.60;86.30;;;;;;5020428;28;20041;-61
2024/01/14 08:42:25;;;;;;;36.58;16.77;;;-1.60;86.20;;;;;;5019932;28;20033;-61
2024/01/14 08:44:50;;;;;;;40.50;19.08;;;-1.60;86.20;;;;;;5014939;28;20034;-59
2024/01/14 08:47:16;;;;;;;38.17;17.30;;;-1.50;86.30;;;;;;5024356;28;20448;-61
2024/01/14 08:49:41;;;;;;;39.33;18.23;;;-1.50;86.30;;;;;;5021539;28;20129;-59
2024/01/14 08:52:08;;;;;;;37.90;17.88;;;-1.50;86.20;;;;;;5014257;28;20030;-60
2024/01/14 08:54:34;;;;;;;39.03;17.60;;;-1.50;86.20;;;;;;5018882;28;20449;-60
2024/01/14 08:57:00;;;;;;;43.33;19.63;;;-1.50;86.10;;;;;;5023969;28;20087;-62
2024/01/14 08:59:26;;;;;;;35.63;17.60;;;-1.40;86.10;;;;;;5019444;28;22877;-62
2024/01/14 09:01:52;;;;;;;39.78;18.60;;;-1.40;86.00;;;;;;5021163;28;20116;-61
2024/01/14 09:04:18;;;;;;;38.20;17.73;;;-1.50;86.00;;;;;;5023251;28;20038;-59
2024/01/14 09:06:43;;;;;;;38.45;17.88;;;-1.50;86.10;;;;;;5019439;28;20401;-61
2024/01/14 09:09:09;;;;;;;37.13;16.65;;;-1.40;86.30;;;;;;5020130;28;20041;-59
2024/01/14 09:11:34;;;;;;;33.85;16.58;;;-1.40;86.30;;;;;;5019081;28;20516;-61
2024/01/14 09:14:00;;;;;;;38.20;16.95;;;-1.40;86.50;;;;;;5018883;28;20042;-61
2024/01/14 09:16:26;;;;;;;35.45;17.00;;;-1.40;86.50;;;;;;5008233;28;20046;-60
2024/01/14 09:18:52;;;;;;;36.00;17.00;;;-1.30;86.50;;;;;;5011158;28;20026;-61
2024/01/14 09:21:18;;;;;;;36.13;16.67;;;-1.30;86.50;;;;;;5014968;28;20099;-61
2024/01/14 09:23:43;;;;;;;37.95;16.45;;;-1.30;86.50;;;;;;5020418;28;20049;-58
2024/01/14 09:26:09;;;;;;;38.92;17.20;;;-1.30;86.30;;;;;;5020131;28;20026;-60
2024/01/14 09:28:36;;;;;;;37.58;16.42;;;-1.20;86.40;;;;;;5014698;28;20306;-59
2024/01/14 09:31:05;;;;;;;37.65;16.45;;;-1.20;86.30;;;;;;5020073;28;20493;-59
2024/01/14 09:33:31;;;;;;;37.42;17.05;;;-1.20;86.20;;;;;;5019754;28;20038;-56
2024/01/14 09:35:56;;;;;;;39.50;17.13;;;-1.20;86.00;;;;;;5020205;28;20038;-56
2024/01/14 09:38:22;;;;;;;39.40;17.50;;;-1.20;86.00;;;;;;5024596;28;20199;-57
2024/01/14 09:41:02;;;;;;;43.75;19.15;;;-1.20;86.10;;;;;;5020932;28;20037;-60
2024/01/14 09:43:32;;;;;;;41.45;18.25;;;-1.20;86.20;;;;;;5027967;28;20191;-59
2024/01/14 09:45:58;;;;;;;45.80;19.60;;;-1.20;86.20;;;;;;5023765;28;20033;-61
2024/01/14 09:48:24;;;;;;;36.85;17.73;;;-1.10;86.30;;;;;;5028454;28;20041;-58
2024/01/14 09:50:51;;;;;;;39.20;17.65;;;-1.10;86.30;;;;;;5026656;28;20072;-59
2024/01/14 09:53:19;;;;;;;37.47;16.98;;;-1.10;86.30;;;;;;5025513;28;20105;-61
2024/01/14 09:55:48;;;;;;;36.63;16.40;;;-1.10;86.20;;;;;;5027564;28;20044;-59
2024/01/14 09:58:15;;;;;;;36.08;16.20;;;-1.00;86.30;;;;;;5027687;28;20037;-59
2024/01/14 10:00:43;;;;;;;31.65;15.07;;;-1.00;86.40;;;;;;5027928;28;20048;-56
2024/01/14 10:03:09;;;;;;;35.05;16.05;;;-1.00;86.30;;;;;;5021208;28;20168;-60
2024/01/14 10:05:37;;;;;;;36.40;17.27;;;-0.90;86.40;;;;;;5028520;28;20037;-60
2024/01/14 10:08:03;;;;;;;32.65;15.98;;;-0.90;86.20;;;;;;5026476;28;20256;-59
2024/01/14 10:10:31;;;;;;;34.75;16.85;;;-0.90;86.30;;;;;;5028135;28;20048;-59
2024/01/14 10:12:57;;;;;;;34.13;16.38;;;-0.80;86.30;;;;;;5025282;28;20032;-61
2024/01/14 10:15:22;;;;;;;38.05;17.27;;;-0.80;86.30;;;;;;5025976;28;20037;-61
2024/01/14 10:17:51;;;;;;;34.15;15.95;;;-0.80;86.30;;;;;;5025344;28;20519;-61
2024/01/14 10:20:20;;;;;;;35.42;16.38;;;-0.70;86.10;;;;;;5033881;28;20114;-60
2024/01/14 10:22:46;;;;;;;32.60;15.43;;;-0.70;86.10;;;;;;5029642;28;20029;-61
2024/01/14 10:25:11;;;;;;;33.28;15.65;;;-0.70;86.10;;;;;;5031360;28;20514;-60
2024/01/14 10:27:37;;;;;;;32.45;15.70;;;-0.60;86.10;;;;;;5024258;28;20029;-57
2024/01/14 10:30:04;;;;;;;35.15;16.17;;;-0.60;86.00;;;;;;5027722;28;23143;-60
2024/01/14 10:32:32;;;;;;;35.70;16.35;;;-0.60;85.90;;;;;;5028246;28;20029;-60
2024/01/14 10:34:58;;;;;;;34.60;16.27;;;-0.60;85.80;;;;;;5027671;28;20038;-61
2024/01/14 10:37:28;;;;;;;33.80;16.38;;;-0.50;85.90;;;;;;5026753;28;20034;-62
2024/01/14 10:39:54;;;;;;;40.03;17.80;;;-0.50;86.00;;;;;;5026027;28;20037;-59
2024/01/14 10:42:19;;;;;;;33.90;15.82;;;-0.50;86.00;;;;;;5026152;28;20457;-58
2024/01/14 10:44:48;;;;;;;38.00;16.52;;;-0.40;86.10;;;;;;5021944;28;20109;-59
2024/01/14 10:47:17;;;;;;;35.58;16.30;;;-0.40;86.10;;;;;;5022194;28;20037;-61
2024/01/14 10:49:44;;;;;;;36.53;16.15;;;-0.30;86.00;;;;;;5027553;28;20111;-60
2024/01/14 10:52:10;;;;;;;36.75;16.63;;;-0.30;86.00;;;;;;5019432;28;20053;-60
2024/01/14 10:54:49;;;;;;;35.33;16.73;;;-0.20;86.00;;;;;;5026704;28;20095;-60
2024/01/14 10:57:30;;;;;;;34.20;15.23;;;-0.20;85.80;;;;;;5024611;28;20120;-60
2024/01/14 11:00:05;;;;;;;35.20;16.05;;;-0.10;85.80;;;;;;5018611;28;20036;-60
2024/01/14 11:02:33;;;;;;;35.03;16.77;;;-0.10;85.80;;;;;;5022881;28;20108;-60
2024/01/14 11:04:59;;;;;;;35.20;15.90;;;0.00;85.80;;;;;;5021334;28;20026;-61
2024/01/14 11:07:25;;;;;;;36.65;16.10;;;0.10;85.90;;;;;;5021162;28;20030;-60
2024/01/14 11:09:52;;;;;;;32.33;15.50;;;0.10;85.80;;;;;;5022435;28;20121;-60
2024/01/14 11:12:39;;;;;;;33.80;15.80;;;0.20;85.80;;;;;;5019267;28;20018;-59
2024/01/14 11:15:08;;;;;;;31.80;15.40;;;0.20;85.60;;;;;;5023367;28;20187;-60
2024/01/14 11:17:52;;;;;;;32.80;15.50;;;0.30;85.60;;;;;;5026808;28;20532;-60
2024/01/14 11:20:27;;;;;;;35.17;15.77;;;0.40;85.50;;;;;;5018260;28;20040;-59
2024/01/14 11:22:56;;;;;;;33.47;15.57;;;0.40;85.60;;;;;;5024812;28;20044;-61
2024/01/14 11:25:22;;;;;;;32.35;15.70;;;0.50;85.50;;;;;;5024989;28;20535;-59
2024/01/14 11:27:50;;;;;;;32.30;15.77;;;0.50;85.50;;;;;;5024568;28;20135;-61
2024/01/14 11:30:19;;;;;;;34.85;15.80;;;0.60;85.60;;;;;;5022826;28;20026;-60
2024/01/14 11:32:45;;;;;;;30.00;14.30;;;0.70;85.40;;;;;;5020337;28;20489;-61
2024/01/14 11:35:31;;;;;;;33.50;15.50;;;0.70;85.50;;;;;;5023620;28;20033;-60
2024/01/14 11:37:56;;;;;;;32.88;16.45;;;0.80;85.20;;;;;;5020085;28;20090;-59
2024/01/14 11:40:27;;;;;;;33.20;16.17;;;0.80;85.30;;;;;;5023342;28;20045;-59
2024/01/14 11:43:07;;;;;;;31.40;15.55;;;0.90;85.30;;;;;;5024680;28;20359;-59
2024/01/14 11:45:35;;;;;;;33.50;16.13;;;0.90;85.30;;;;;;5028567;28;20450;-60
2024/01/14 11:48:05;;;;;;;31.13;15.23;;;1.00;85.10;;;;;;5026496;28;20029;-59
2024/01/14 11:50:33;;;;;;;33.50;15.48;;;1.00;85.10;;;;;;5024888;28;20037;-59
2024/01/14 11:53:00;;;;;;;29.75;14.90;;;1.00;85.00;;;;;;5028042;28;20040;-59
2024/01/14 11:55:30;;;;;;;28.98;15.23;;;1.10;84.90;;;;;;5029690;28;20405;-59
2024/01/14 11:58:07;;;;;;;31.55;15.00;;;1.10;84.90;;;;;;5032416;28;20068;-60
2024/01/14 12:00:34;;;;;;;30.65;15.10;;;1.20;84.90;;;;;;5024889;28;20037;-59
2024/01/14 12:03:14;;;;;;;30.90;14.57;;;1.20;84.70;;;;;;5025506;28;20040;-60
2024/01/14 12:05:40;;;;;;;29.65;14.68;;;1.30;84.40;;;;;;5027744;28;20029;-57
2024/01/14 12:08:06;;;;;;;29.77;15.57;;;1.30;84.70;;;;;;5023178;28;20036;-57
2024/01/14 12:10:32;;;;;;;30.23;14.65;;;1.40;84.40;;;;;;5020441;28;20414;-58
2024/01/14 12:13:01;;;;;;;31.48;14.60;;;1.50;84.20;;;;;;5031351;28;20060;-60
2024/01/14 12:15:27;;;;;;;31.42;15.70;;;1.50;84.30;;;;;;5024600;28;20033;-59
2024/01/14 12:18:01;;;;;;;30.45;14.38;;;1.50;84.40;;;;;;5026713;28;20234;-61
2024/01/14 12:20:28;;;;;;;31.15;14.75;;;1.60;84.10;;;;;;5026008;28;20064;-61
2024/01/14 12:22:59;;;;;;;28.63;14.07;;;1.70;84.40;;;;;;5025600;28;20073;-60
2024/01/14 12:25:25;;;;;;;30.60;14.13;;;1.70;84.30;;;;;;5033554;28;20041;-59